createdAt,value
2022-09-25T00:01:11.934Z,8.50
2022-09-25T00:03:40.901Z,8.60
2022-09-25T00:06:15.845Z,8.40
2022-09-25T00:08:43.604Z,8.40
2022-09-25T00:11:15.274Z,8.40
2022-09-25T00:13:43.942Z,8.40
2022-09-25T00:16:14.426Z,8.50
2022-09-25T00:18:57.723Z,8.50
2022-09-25T00:21:31.286Z,8.50
2022-09-25T00:24:00.724Z,8.50
2022-09-25T00:26:30.344Z,8.50
2022-09-25T00:29:01.621Z,8.50
2022-09-25T00:31:30.336Z,8.60
2022-09-25T00:34:01.117Z,8.50
2022-09-25T00:36:29.523Z,8.40
2022-09-25T00:38:57.489Z,8.50
2022-09-25T00:41:27.756Z,8.50
2022-09-25T00:43:58.033Z,8.50
2022-09-25T00:46:34.988Z,8.50
2022-09-25T00:49:20.480Z,8.50
2022-09-25T00:51:55.691Z,8.40
2022-09-25T00:54:28.353Z,8.40
2022-09-25T00:56:58.721Z,8.40
2022-09-25T00:59:31.630Z,8.40
2022-09-25T01:01:59.719Z,8.50
2022-09-25T01:04:31.210Z,8.50
2022-09-25T01:07:00.271Z,8.40
2022-09-25T01:09:29.014Z,8.50
2022-09-25T01:11:56.934Z,8.50
2022-09-25T01:14:24.487Z,8.70
2022-09-25T01:17:14.165Z,8.60
2022-09-25T01:20:14.451Z,8.60
2022-09-25T01:23:17.389Z,8.50
2022-09-25T01:26:15.465Z,8.50
2022-09-25T01:29:06.882Z,8.60
2022-09-25T01:31:58.098Z,8.70
2022-09-25T01:34:45.439Z,8.60
2022-09-25T01:37:34.947Z,8.60
2022-09-25T01:40:23.746Z,8.60
2022-09-25T01:43:02.062Z,8.70
2022-09-25T01:45:40.993Z,8.80
2022-09-25T01:48:10.894Z,8.70
2022-09-25T01:50:47.013Z,8.50
2022-09-25T01:53:21.953Z,8.50
2022-09-25T01:55:55.483Z,8.50
2022-09-25T01:58:32.797Z,8.60
2022-09-25T02:01:08.180Z,8.40
2022-09-25T02:03:46.822Z,8.30
2022-09-25T02:06:20.031Z,8.30
2022-09-25T02:08:54.576Z,8.40
2022-09-25T02:11:23.911Z,8.30
2022-09-25T02:13:58.434Z,8.30
2022-09-25T02:16:34.685Z,8.30
2022-09-25T02:19:23.020Z,8.40
2022-09-25T02:22:04.612Z,8.50
2022-09-25T02:24:47.575Z,8.20
2022-09-25T02:27:15.936Z,8.50
2022-09-25T02:29:43.372Z,8.30
2022-09-25T02:32:13.947Z,8.20
2022-09-25T02:34:41.937Z,8.10
2022-09-25T02:37:15.756Z,8.10
2022-09-25T02:39:48.155Z,8.00
2022-09-25T02:42:38.840Z,8.10
2022-09-25T02:45:28.835Z,8.20
2022-09-25T02:48:27.128Z,8.10
2022-09-25T02:51:15.595Z,8.10
2022-09-25T02:53:54.802Z,8.00
2022-09-25T02:56:47.584Z,8.40
2022-09-25T02:59:21.650Z,8.10
2022-09-25T03:01:50.628Z,8.10
2022-09-25T03:04:19.450Z,8.00
2022-09-25T03:06:47.652Z,8.00
2022-09-25T03:09:17.846Z,8.00
2022-09-25T03:11:46.175Z,7.90
2022-09-25T03:14:13.980Z,8.10
2022-09-25T03:16:52.052Z,8.10
2022-09-25T03:19:20.090Z,8.00
2022-09-25T03:21:48.738Z,8.00
2022-09-25T03:24:16.445Z,8.00
2022-09-25T03:26:44.895Z,7.90
2022-09-25T03:29:15.000Z,7.90
2022-09-25T03:31:42.902Z,7.90
2022-09-25T03:34:11.933Z,8.00
2022-09-25T03:36:40.276Z,7.90
2022-09-25T03:39:10.907Z,8.20
2022-09-25T03:41:38.485Z,8.10
2022-09-25T03:44:06.055Z,7.90
2022-09-25T03:46:36.029Z,7.90
2022-09-25T03:49:04.372Z,7.70
2022-09-25T03:51:32.959Z,7.90
2022-09-25T03:54:00.741Z,7.90
2022-09-25T03:56:30.030Z,7.90
2022-09-25T03:58:57.960Z,7.90
2022-09-25T04:01:27.146Z,8.40
2022-09-25T04:03:55.240Z,8.00
2022-09-25T04:06:25.392Z,7.90
2022-09-25T04:08:53.975Z,7.90
2022-09-25T04:11:24.662Z,7.90
2022-09-25T04:13:53.023Z,7.90
2022-09-25T04:16:21.717Z,8.00
2022-09-25T04:18:50.476Z,7.40
2022-09-25T04:21:18.625Z,7.90
2022-09-25T04:24:06.269Z,7.90
2022-09-25T04:26:34.396Z,7.70
2022-09-25T04:29:02.341Z,7.80
2022-09-25T04:31:30.738Z,7.70
2022-09-25T04:33:58.369Z,8.10
2022-09-25T04:36:26.023Z,7.90
2022-09-25T04:38:53.630Z,7.70
2022-09-25T04:41:21.404Z,7.90
2022-09-25T04:43:48.995Z,7.70
2022-09-25T04:46:21.765Z,7.60
2022-09-25T04:48:50.848Z,7.70
2022-09-25T04:51:18.501Z,7.90
2022-09-25T04:53:46.855Z,7.70
2022-09-25T04:56:16.339Z,7.90
2022-09-25T04:58:49.766Z,7.80
2022-09-25T05:01:19.913Z,7.80
2022-09-25T05:03:50.709Z,7.90
2022-09-25T05:06:18.425Z,8.00
2022-09-25T05:08:49.903Z,7.80
2022-09-25T05:11:17.869Z,8.10
2022-09-25T05:13:49.381Z,7.80
2022-09-25T05:16:17.057Z,7.90
2022-09-25T05:18:44.768Z,7.90
2022-09-25T05:21:12.409Z,7.90
2022-09-25T05:23:40.025Z,7.90
2022-09-25T05:26:07.597Z,7.80
2022-09-25T05:28:35.232Z,7.80
2022-09-25T05:31:04.531Z,7.80
2022-09-25T05:33:33.552Z,8.00
2022-09-25T05:36:02.952Z,7.80
2022-09-25T05:38:34.118Z,7.70
2022-09-25T05:41:05.735Z,7.70
2022-09-25T05:43:34.373Z,7.90
2022-09-25T05:46:02.309Z,7.90
2022-09-25T05:48:29.933Z,8.10
2022-09-25T05:50:58.565Z,7.90
2022-09-25T05:53:27.035Z,8.00
2022-09-25T05:55:58.792Z,8.10
2022-09-25T05:58:28.198Z,7.90
2022-09-25T06:00:55.940Z,8.00
2022-09-25T06:03:23.656Z,7.80
2022-09-25T06:05:51.376Z,7.10
2022-09-25T06:08:18.934Z,7.90
2022-09-25T06:10:54.001Z,8.10
2022-09-25T06:13:23.603Z,7.90
2022-09-25T06:15:52.752Z,8.00
2022-09-25T06:18:23.085Z,8.00
2022-09-25T06:20:51.793Z,8.00
2022-09-25T06:23:19.846Z,7.90
2022-09-25T06:25:47.630Z,7.90
2022-09-25T06:28:15.177Z,8.00
2022-09-25T06:30:42.851Z,8.00
2022-09-25T06:33:13.241Z,8.10
2022-09-25T06:35:46.072Z,8.00
2022-09-25T06:38:15.050Z,8.00
2022-09-25T06:40:43.191Z,7.90
2022-09-25T06:43:13.007Z,7.80
2022-09-25T06:45:41.608Z,8.00
2022-09-25T06:48:13.369Z,7.90
2022-09-25T06:50:47.885Z,8.10
2022-09-25T06:53:16.578Z,8.00
2022-09-25T06:55:45.501Z,8.00
2022-09-25T06:58:17.412Z,7.80
2022-09-25T07:00:49.039Z,8.10
2022-09-25T07:03:32.779Z,7.90
2022-09-25T07:06:01.725Z,7.90
2022-09-25T07:08:30.597Z,8.10
2022-09-25T07:10:59.810Z,8.00
2022-09-25T07:13:30.611Z,8.20
2022-09-25T07:16:01.347Z,7.90
2022-09-25T07:18:30.547Z,8.10
2022-09-25T07:21:03.748Z,8.10
2022-09-25T07:23:31.687Z,8.10
2022-09-25T07:26:06.845Z,8.10
2022-09-25T07:28:36.178Z,8.40
2022-09-25T07:31:14.853Z,8.30
2022-09-25T07:33:42.752Z,8.30
2022-09-25T07:36:10.925Z,8.10
2022-09-25T07:38:39.670Z,8.10
2022-09-25T07:41:10.483Z,8.10
2022-09-25T07:43:39.087Z,7.90
2022-09-25T07:46:07.539Z,7.90
2022-09-25T07:48:35.970Z,7.70
2022-09-25T07:51:05.675Z,8.00
2022-09-25T07:53:33.968Z,8.00
2022-09-25T07:56:06.424Z,8.00
2022-09-25T07:58:35.795Z,8.00
2022-09-25T08:01:06.345Z,7.90
2022-09-25T08:03:34.469Z,7.80
2022-09-25T08:06:07.221Z,8.00
2022-09-25T08:08:36.061Z,7.90
2022-09-25T08:11:08.736Z,7.90
2022-09-25T08:13:38.782Z,7.90
2022-09-25T08:16:11.991Z,7.90
2022-09-25T08:18:42.377Z,8.00
2022-09-25T08:21:14.636Z,8.00
2022-09-25T08:23:47.738Z,8.00
2022-09-25T08:26:17.534Z,7.70
2022-09-25T08:28:46.148Z,7.80
2022-09-25T08:31:15.198Z,7.70
2022-09-25T08:33:48.520Z,7.80
2022-09-25T08:36:18.930Z,7.80
2022-09-25T08:38:47.097Z,7.80
2022-09-25T08:41:31.496Z,8.00
2022-09-25T08:44:18.924Z,7.90
2022-09-25T08:47:25.049Z,8.00
2022-09-25T08:50:19.266Z,8.00
2022-09-25T08:52:53.089Z,8.10
2022-09-25T08:55:48.924Z,8.00
2022-09-25T08:58:30.155Z,8.10
2022-09-25T09:01:08.332Z,8.30
2022-09-25T09:03:49.134Z,8.20
2022-09-25T09:06:22.795Z,8.20
2022-09-25T09:09:13.846Z,8.30
2022-09-25T09:11:54.414Z,8.20
2022-09-25T09:14:27.250Z,8.20
2022-09-25T09:17:04.505Z,8.10
2022-09-25T09:19:41.572Z,8.10
2022-09-25T09:22:17.677Z,8.00
2022-09-25T09:25:26.557Z,8.10
2022-09-25T09:28:24.131Z,8.20
2022-09-25T09:31:16.586Z,8.20
2022-09-25T09:34:46.493Z,8.10
2022-09-25T09:38:12.275Z,8.10
2022-09-25T09:41:05.558Z,8.20
2022-09-25T09:43:59.480Z,8.30
2022-09-25T09:46:58.855Z,8.20
2022-09-25T09:49:58.689Z,8.30
2022-09-25T09:52:50.858Z,8.30
2022-09-25T09:55:43.515Z,8.30
2022-09-25T09:58:51.660Z,8.40
2022-09-25T10:01:40.830Z,8.60
2022-09-25T10:04:46.598Z,8.50
2022-09-25T10:07:34.311Z,8.60
2022-09-25T10:10:31.445Z,9.00
2022-09-25T10:13:30.084Z,8.90
2022-09-25T10:16:38.313Z,8.80
2022-09-25T10:19:30.444Z,8.80
2022-09-25T10:22:29.636Z,8.80
2022-09-25T10:25:20.278Z,8.90
2022-09-25T10:28:09.805Z,9.10
2022-09-25T10:31:23.819Z,9.10
2022-09-25T10:37:21.161Z,9.40
2022-09-25T10:40:46.806Z,9.00
2022-09-25T10:47:34.185Z,8.90
2022-09-25T10:50:34.346Z,8.70
2022-09-25T10:53:45.750Z,8.60
2022-09-25T10:56:55.409Z,8.70
2022-09-25T10:59:39.471Z,8.70
2022-09-25T11:05:51.383Z,8.70
2022-09-25T11:08:41.222Z,8.70
2022-09-25T11:11:41.611Z,8.70
2022-09-25T11:14:55.527Z,8.70
2022-09-25T11:17:49.757Z,8.80
2022-09-25T11:23:57.622Z,8.70
2022-09-25T11:30:19.301Z,8.90
2022-09-25T11:36:41.841Z,8.90
2022-09-25T11:40:24.186Z,8.90
2022-09-25T11:43:07.168Z,8.90
2022-09-25T11:46:16.592Z,9.10
2022-09-25T11:49:09.973Z,9.00
2022-09-25T11:52:23.490Z,8.90
2022-09-25T11:55:29.991Z,8.90
2022-09-25T11:58:29.051Z,8.90
2022-09-25T12:01:35.025Z,8.80
2022-09-25T12:04:29.434Z,8.80
2022-09-25T12:07:25.252Z,8.80
2022-09-25T12:10:19.754Z,8.60
2022-09-25T12:13:08.945Z,8.60
2022-09-25T12:16:06.559Z,8.50
2022-09-25T12:19:03.723Z,8.40
2022-09-25T12:21:51.054Z,8.50
2022-09-25T12:24:51.761Z,8.40
2022-09-25T12:27:56.237Z,8.50
2022-09-25T12:30:39.278Z,8.70
2022-09-25T12:33:51.420Z,8.80
2022-09-25T12:36:39.576Z,9.00
2022-09-25T12:39:38.648Z,8.90
2022-09-25T12:42:20.302Z,9.00
2022-09-25T12:45:04.149Z,8.90
2022-09-25T12:47:59.177Z,9.00
2022-09-25T12:50:35.700Z,9.10
2022-09-25T12:53:30.979Z,9.10
2022-09-25T12:56:18.401Z,9.20
2022-09-25T12:59:14.606Z,9.20
2022-09-25T13:02:12.901Z,9.30
2022-09-25T13:05:18.132Z,9.50
2022-09-25T13:08:16.771Z,9.50
2022-09-25T13:11:08.147Z,9.40
2022-09-25T13:13:51.189Z,9.30
2022-09-25T13:16:23.377Z,9.30
2022-09-25T13:19:12.773Z,9.40
2022-09-25T13:21:44.950Z,9.40
2022-09-25T13:24:20.861Z,9.30
2022-09-25T13:27:04.790Z,9.40
2022-09-25T13:29:44.610Z,9.50
2022-09-25T13:32:26.006Z,9.80
2022-09-25T13:35:04.790Z,9.90
2022-09-25T13:37:42.177Z,9.80
2022-09-25T13:40:42.184Z,9.80
2022-09-25T13:43:27.471Z,9.50
2022-09-25T13:46:26.016Z,9.60
2022-09-25T13:49:33.308Z,9.50
2022-09-25T13:52:04.433Z,9.50
2022-09-25T13:54:36.869Z,9.40
2022-09-25T13:57:09.771Z,9.40
2022-09-25T13:59:40.665Z,9.40
2022-09-25T14:02:40.653Z,9.40
2022-09-25T14:05:15.612Z,9.30
2022-09-25T14:07:50.434Z,9.40
2022-09-25T14:10:25.311Z,9.40
2022-09-25T14:12:59.494Z,9.50
2022-09-25T14:15:39.920Z,9.40
2022-09-25T14:18:23.122Z,9.40
2022-09-25T14:20:58.890Z,9.30
2022-09-25T14:23:34.918Z,9.30
2022-09-25T14:26:23.232Z,9.20
2022-09-25T14:28:56.504Z,9.30
2022-09-25T14:31:46.255Z,9.20
2022-09-25T14:34:48.846Z,9.20
2022-09-25T14:37:55.926Z,9.20
2022-09-25T14:40:36.933Z,9.10
2022-09-25T14:43:34.456Z,9.00
2022-09-25T14:46:21.726Z,9.00
2022-09-25T14:48:57.781Z,9.10
2022-09-25T14:51:48.793Z,9.10
2022-09-25T14:54:24.772Z,9.10
2022-09-25T14:56:59.247Z,9.00
2022-09-25T14:59:46.500Z,9.00
2022-09-25T15:02:36.781Z,9.00
2022-09-25T15:05:35.522Z,9.10
2022-09-25T15:08:26.668Z,9.20
2022-09-25T15:11:07.119Z,9.20
2022-09-25T15:13:38.652Z,9.20
2022-09-25T15:16:33.308Z,9.10
2022-09-25T15:19:11.238Z,9.00
2022-09-25T15:21:44.964Z,9.00
2022-09-25T15:24:21.731Z,9.10
2022-09-25T15:27:04.111Z,9.20
2022-09-25T15:29:40.342Z,9.10
2022-09-25T15:32:20.995Z,9.00
2022-09-25T15:34:52.451Z,9.10
2022-09-25T15:37:33.134Z,9.10
2022-09-25T15:40:20.819Z,9.20
2022-09-25T15:42:55.783Z,9.10
2022-09-25T15:45:59.220Z,9.20
2022-09-25T15:48:35.230Z,9.30
2022-09-25T15:51:29.301Z,9.20
2022-09-25T15:54:05.523Z,9.10
2022-09-25T15:56:51.142Z,9.00
2022-09-25T15:59:32.641Z,9.60
2022-09-25T16:02:36.716Z,9.20
2022-09-25T16:05:16.747Z,9.10
2022-09-25T16:07:51.457Z,9.10
2022-09-25T16:10:37.130Z,9.10
2022-09-25T16:13:21.664Z,8.90
2022-09-25T16:15:55.980Z,9.00
2022-09-25T16:18:49.212Z,8.90
2022-09-25T16:21:33.069Z,9.00
2022-09-25T16:24:12.728Z,9.00
2022-09-25T16:26:50.190Z,9.00
2022-09-25T16:29:27.713Z,9.00
2022-09-25T16:32:09.431Z,9.00
2022-09-25T16:34:54.161Z,9.00
2022-09-25T16:37:29.427Z,9.20
2022-09-25T16:40:28.733Z,9.10
2022-09-25T16:43:03.884Z,9.20
2022-09-25T16:45:42.615Z,9.30
2022-09-25T16:48:33.146Z,9.30
2022-09-25T16:51:13.936Z,9.20
2022-09-25T16:53:46.876Z,9.10
2022-09-25T16:56:31.630Z,9.00
2022-09-25T16:59:11.134Z,9.00
2022-09-25T17:01:44.226Z,9.10
2022-09-25T17:04:18.232Z,9.20
2022-09-25T17:06:51.167Z,9.10
2022-09-25T17:09:24.414Z,9.10
2022-09-25T17:12:05.593Z,9.10
2022-09-25T17:14:42.140Z,9.20
2022-09-25T17:17:19.684Z,9.20
2022-09-25T17:19:53.046Z,9.10
2022-09-25T17:22:31.617Z,9.10
2022-09-25T17:25:17.170Z,9.10
2022-09-25T17:27:50.464Z,9.10
2022-09-25T17:30:22.604Z,9.00
2022-09-25T17:32:54.556Z,9.10
2022-09-25T17:35:50.260Z,9.10
2022-09-25T17:38:24.574Z,9.10
2022-09-25T17:41:05.356Z,9.10
2022-09-25T17:43:39.075Z,9.20
2022-09-25T17:46:13.097Z,9.20
2022-09-25T17:48:53.102Z,9.30
2022-09-25T17:51:28.196Z,9.20
2022-09-25T17:54:13.842Z,9.30
2022-09-25T17:56:48.656Z,9.30
2022-09-25T17:59:21.128Z,9.40
2022-09-25T18:01:56.835Z,9.30
2022-09-25T18:04:29.239Z,9.50
2022-09-25T18:06:59.550Z,9.40
2022-09-25T18:09:30.791Z,9.30
2022-09-25T18:12:02.103Z,9.30
2022-09-25T18:14:33.630Z,9.40
2022-09-25T18:17:03.839Z,9.40
2022-09-25T18:19:48.802Z,9.20
2022-09-25T18:22:20.046Z,9.10
2022-09-25T18:24:57.457Z,9.10
2022-09-25T18:27:30.919Z,9.20
2022-09-25T18:30:01.043Z,9.20
2022-09-25T18:32:34.104Z,9.20
2022-09-25T18:35:04.120Z,9.20
2022-09-25T18:37:34.115Z,9.20
2022-09-25T18:40:04.840Z,9.10
2022-09-25T18:42:35.720Z,9.10
2022-09-25T18:45:06.531Z,9.10
2022-09-25T18:47:36.222Z,9.20
2022-09-25T18:50:06.499Z,9.30
2022-09-25T18:52:36.356Z,9.30
2022-09-25T18:55:07.135Z,9.20
2022-09-25T18:57:40.437Z,9.10
2022-09-25T19:00:11.566Z,9.10
2022-09-25T19:02:42.750Z,9.20
2022-09-25T19:05:13.197Z,9.10
2022-09-25T19:07:43.573Z,9.00
2022-09-25T19:10:14.080Z,9.10
2022-09-25T19:12:46.192Z,9.20
2022-09-25T19:15:16.032Z,9.20
2022-09-25T19:17:46.358Z,9.10
2022-09-25T19:20:16.570Z,9.00
2022-09-25T19:22:48.128Z,9.00
2022-09-25T19:25:22.337Z,9.00
2022-09-25T19:27:52.182Z,8.80
2022-09-25T19:30:22.906Z,8.80
2022-09-25T19:32:52.691Z,8.70
2022-09-25T19:35:23.264Z,8.70
2022-09-25T19:37:53.161Z,8.70
2022-09-25T19:40:38.233Z,8.70
2022-09-25T19:43:09.103Z,8.70
2022-09-25T19:45:39.308Z,8.70
2022-09-25T19:48:09.057Z,8.70
2022-09-25T19:50:42.591Z,8.70
2022-09-25T19:53:12.506Z,8.70
2022-09-25T19:55:44.023Z,8.70
2022-09-25T19:58:13.448Z,8.60
2022-09-25T20:00:43.444Z,8.60
2022-09-25T20:03:13.135Z,8.50
2022-09-25T20:05:44.932Z,8.60
2022-09-25T20:08:14.434Z,8.50
2022-09-25T20:10:44.320Z,8.60
2022-09-25T20:13:14.756Z,8.70
2022-09-25T20:15:46.535Z,8.60
2022-09-25T20:18:17.134Z,8.50
2022-09-25T20:20:46.429Z,8.60
2022-09-25T20:23:15.685Z,8.60
2022-09-25T20:25:44.905Z,8.50
2022-09-25T20:28:15.776Z,8.50
2022-09-25T20:30:45.223Z,8.50
2022-09-25T20:33:14.243Z,8.50
2022-09-25T20:35:43.237Z,8.50
2022-09-25T20:38:12.482Z,8.50
2022-09-25T20:40:41.711Z,8.50
2022-09-25T20:43:10.692Z,8.50
2022-09-25T20:45:39.421Z,8.60
2022-09-25T20:48:08.459Z,8.60
2022-09-25T20:50:38.864Z,8.60
2022-09-25T20:53:07.463Z,8.60
2022-09-25T20:55:38.659Z,8.50
2022-09-25T20:58:07.223Z,8.50
2022-09-25T21:00:36.910Z,8.50
2022-09-25T21:03:05.760Z,8.60
2022-09-25T21:05:39.891Z,8.50
2022-09-25T21:08:07.998Z,8.40
2022-09-25T21:10:37.550Z,8.40
2022-09-25T21:13:05.741Z,8.40
2022-09-25T21:15:34.184Z,8.50
2022-09-25T21:18:02.168Z,8.50
2022-09-25T21:20:30.068Z,8.40
2022-09-25T21:22:57.757Z,8.50
2022-09-25T21:25:27.183Z,8.40
2022-09-25T21:27:55.856Z,8.40
2022-09-25T21:30:24.615Z,8.40
2022-09-25T21:32:52.244Z,8.40
2022-09-25T21:35:20.716Z,8.40
2022-09-25T21:37:48.717Z,8.40
2022-09-25T21:40:16.806Z,8.50
2022-09-25T21:42:44.502Z,8.60
2022-09-25T21:45:12.129Z,8.70
2022-09-25T21:47:39.666Z,8.70
2022-09-25T21:50:07.658Z,8.60
2022-09-25T21:52:35.227Z,8.50
2022-09-25T21:55:02.742Z,8.60
2022-09-25T21:57:30.558Z,8.60
2022-09-25T21:59:58.297Z,8.60
2022-09-25T22:02:26.149Z,8.60
2022-09-25T22:04:53.657Z,8.70
2022-09-25T22:07:23.379Z,8.60
2022-09-25T22:09:50.931Z,8.60
2022-09-25T22:12:18.573Z,8.50
2022-09-25T22:14:46.381Z,8.50
2022-09-25T22:17:14.069Z,8.50
2022-09-25T22:19:41.985Z,8.50
2022-09-25T22:22:09.435Z,8.50
2022-09-25T22:24:37.089Z,8.50
2022-09-25T22:27:04.894Z,8.50
2022-09-25T22:29:34.013Z,8.50
2022-09-25T22:32:01.706Z,8.60
2022-09-25T22:34:30.290Z,8.60
2022-09-25T22:37:00.211Z,8.80
2022-09-25T22:39:28.955Z,8.70
2022-09-25T22:41:57.664Z,8.60
2022-09-25T22:44:25.436Z,8.70
2022-09-25T22:46:53.220Z,8.70
2022-09-25T22:49:21.948Z,8.70
2022-09-25T22:51:50.055Z,8.80
2022-09-25T22:54:17.857Z,8.80
2022-09-25T22:56:45.485Z,8.80
2022-09-25T22:59:18.354Z,8.90
2022-09-25T23:01:48.710Z,8.80
2022-09-25T23:04:21.277Z,8.80
2022-09-25T23:06:50.542Z,8.90
2022-09-25T23:09:21.202Z,8.80
2022-09-25T23:11:48.961Z,8.70
2022-09-25T23:14:20.078Z,8.80
2022-09-25T23:16:49.560Z,8.80
2022-09-25T23:19:18.260Z,8.90
2022-09-25T23:21:46.830Z,8.70
2022-09-25T23:24:16.767Z,8.80
2022-09-25T23:26:46.043Z,8.80
2022-09-25T23:29:16.953Z,8.70
2022-09-25T23:31:46.214Z,8.80
2022-09-25T23:34:14.199Z,8.90
2022-09-25T23:36:41.847Z,8.90
2022-09-25T23:39:11.542Z,8.80
2022-09-25T23:41:40.377Z,8.70
2022-09-25T23:44:10.199Z,8.60
2022-09-25T23:46:41.255Z,8.50
2022-09-25T23:49:09.946Z,8.60
2022-09-25T23:51:37.939Z,8.80
2022-09-25T23:54:05.554Z,8.80
2022-09-25T23:56:35.098Z,8.80
2022-09-25T23:59:03.972Z,8.90
